Redwood City, CA

10:31 PM PDT on October 01, 2014 (GMT -0700)
Lakeview Way/Summit | Change Station
CLOSE
Current Station
Personal Weather Station
Location: Emerald Hills, CA
Elevation: 443 ft
Nearby Weather Stations
Active Advisory: Heat Advisory

Elev 443 ft 37.47 °N, 122.27 °W | Updated 3 seconds ago

Clear
Clear
65.7 °F
Feels Like 65.7 °F
N
0.0
Wind Variable Wind from WSW
Gusts 1.7 mph

Today
High -- | Low -- °F
--% Chance of Precip.
Yesterday
High -- | Low -- °F
Precip. -- in
7:04 AM 6:51 PM
First Quarter, 55% visible
Pressure 29.94 in
Visibility 10.0 miles
Clouds Clear
Dew Point 36 °F
Humidity 33%
Rainfall 0.00 in
Snow Depth 0 in , 0 in , 0 in
UV 0 out of 12
Pollen 3.60 out of 12
Ozone Good
PM2.5 Good
Flu Activity Not available.
METAR KSQL 020515Z AUTO 30003KT 10SM CLR 20/02 A2994 RMK AO2

More Conditions Fewer Conditions

Pressure 29.94 in
Visibility 10.0 miles
Clouds Clear
Dew Point 36 °F
Humidity 33%
Rainfall 0.00 in
Snow Depth 0 in , 0 in , 0 in
UV 0 out of 12
Pollen 3.60 out of 12
Ozone Good
PM2.5 Good
Flu Activity Not available.
METAR KSQL 020515Z AUTO 30003KT 10SM CLR 20/02 A2994 RMK AO2

More Conditions Fewer Conditions

10-Day Weather Forecast

Almanac

Astronomy

Oct. 01, 2014 Rise Set
Actual Time 7:04 AM PDT 6:51 PM PDT
Civil Twilight 6:38 AM PDT 7:17 PM PDT
Nautical Twilight 6:08 AM PDT 7:48 PM PDT
Astronomical Twilight 5:37 AM PDT 8:18 PM PDT
Moon 2:04 PM PDT (10/1) No Moon Set
Length of Visible Light 12h 39m
Length of Day
11h 47m
Tomorrow will be 2m 23s shorter.
First Quarter, 55% of the Moon is Illuminated
Oct 2
First Quarter
Oct 8
Full
Oct 15
Last Quarter
Oct 23
New
Oct 30
First Quarter

Yesterday's Extremes

State Highs State Lows

Community

WunderPhotos

Upload Photos

1,758,197 photos uploaded!

Nearby

Air Quality

  Air Quality AQ Index Pollutant
Yesterday Good
PM2.5
Yesterday Good
OZONE
Current Good
OZONE
Current Good
PM2.5
Wednesday Good
PM2.5
Thursday Moderate
OZONE
Friday Moderate
NO2
Saturday Moderate
PM2.5
Sunday Moderate
PM2.5
Monday Moderate
PM2.5

Snow Depth

Station Depth Elevation
Tahoe City Cross 0 in 6750 ft
Fallen Leaf 0 in 6300 ft
Poison Flat 0 in 7900 ft
Burnside Lake 1 in 8139 ft
Blue Lakes 0 in 8000 ft

Earthquake Activity

City Distance Mag. Time & Date
South Dos Palos, California 95 miles 3.0 11:17 AM PDT
2014-10-01
Shandon, California 156 miles 2.9 5:34 PM PDT
2014-09-30
East Foothills, California 23 miles 2.6 3:34 PM PDT
2014-09-30
South Dos Palos, California 95 miles 2.7 3:08 PM PDT
2014-09-30
Minimum magnitude displayed is 2.5.

Coastal Water Temperatures

Place Temperature
No Stations Reporting

Nearby Weather Stations